sensor_id;sensor_type;location;lat;lon;timestamp;temperature;humidity
29321;DHT22;16323;51.130;6.612;2023-05-10T00:00:38;19.60;82.20
29321;DHT22;16323;51.130;6.612;2023-05-10T00:03:05;19.50;82.10
29321;DHT22;16323;51.130;6.612;2023-05-10T00:05:32;19.60;82.30
29321;DHT22;16323;51.130;6.612;2023-05-10T00:07:59;19.60;82.30
29321;DHT22;16323;51.130;6.612;2023-05-10T00:10:27;19.60;82.30
29321;DHT22;16323;51.130;6.612;2023-05-10T00:12:54;19.60;82.20
29321;DHT22;16323;51.130;6.612;2023-05-10T00:15:21;19.50;82.10
29321;DHT22;16323;51.130;6.612;2023-05-10T00:17:47;19.50;82.00
29321;DHT22;16323;51.130;6.612;2023-05-10T00:20:14;19.50;82.00
29321;DHT22;16323;51.130;6.612;2023-05-10T00:22:41;19.50;81.90
29321;DHT22;16323;51.130;6.612;2023-05-10T00:25:08;19.60;82.00
29321;DHT22;16323;51.130;6.612;2023-05-10T00:27:37;19.60;82.00
29321;DHT22;16323;51.130;6.612;2023-05-10T00:30:04;19.50;81.80
29321;DHT22;16323;51.130;6.612;2023-05-10T00:32:31;19.50;81.70
29321;DHT22;16323;51.130;6.612;2023-05-10T00:34:58;19.60;81.80
29321;DHT22;16323;51.130;6.612;2023-05-10T00:37:25;19.60;81.80
29321;DHT22;16323;51.130;6.612;2023-05-10T00:39:52;19.60;81.90
29321;DHT22;16323;51.130;6.612;2023-05-10T00:42:18;19.50;81.80
29321;DHT22;16323;51.130;6.612;2023-05-10T00:44:46;19.50;81.90
29321;DHT22;16323;51.130;6.612;2023-05-10T00:47:13;19.50;81.90
29321;DHT22;16323;51.130;6.612;2023-05-10T00:49:40;19.50;81.80
29321;DHT22;16323;51.130;6.612;2023-05-10T00:52:08;19.50;81.90
29321;DHT22;16323;51.130;6.612;2023-05-10T00:54:35;19.50;81.90
29321;DHT22;16323;51.130;6.612;2023-05-10T00:57:02;19.50;81.90
29321;DHT22;16323;51.130;6.612;2023-05-10T00:59:29;19.50;81.70
29321;DHT22;16323;51.130;6.612;2023-05-10T01:01:57;19.50;81.80
29321;DHT22;16323;51.130;6.612;2023-05-10T01:04:24;19.50;81.80
29321;DHT22;16323;51.130;6.612;2023-05-10T01:06:52;19.50;81.80
29321;DHT22;16323;51.130;6.612;2023-05-10T01:09:19;19.50;81.70
29321;DHT22;16323;51.130;6.612;2023-05-10T01:11:46;19.50;81.60
29321;DHT22;16323;51.130;6.612;2023-05-10T01:14:13;19.50;81.50
29321;DHT22;16323;51.130;6.612;2023-05-10T01:16:42;19.50;81.50
29321;DHT22;16323;51.130;6.612;2023-05-10T01:19:18;19.50;81.50
29321;DHT22;16323;51.130;6.612;2023-05-10T01:21:49;19.50;81.50
29321;DHT22;16323;51.130;6.612;2023-05-10T01:24:42;19.50;81.50
29321;DHT22;16323;51.130;6.612;2023-05-10T01:27:30;19.50;81.60
29321;DHT22;16323;51.130;6.612;2023-05-10T01:30:16;19.50;81.60
29321;DHT22;16323;51.130;6.612;2023-05-10T01:32:55;19.50;81.60
29321;DHT22;16323;51.130;6.612;2023-05-10T01:35:30;19.50;81.70
29321;DHT22;16323;51.130;6.612;2023-05-10T01:38:04;19.50;81.70
29321;DHT22;16323;51.130;6.612;2023-05-10T01:40:37;19.60;81.90
29321;DHT22;16323;51.130;6.612;2023-05-10T01:43:11;19.50;81.80
29321;DHT22;16323;51.130;6.612;2023-05-10T01:45:47;19.50;81.80
29321;DHT22;16323;51.130;6.612;2023-05-10T01:48:19;19.50;81.80
29321;DHT22;16323;51.130;6.612;2023-05-10T01:50:48;19.50;81.80
29321;DHT22;16323;51.130;6.612;2023-05-10T01:53:18;19.50;81.70
29321;DHT22;16323;51.130;6.612;2023-05-10T01:55:49;19.50;81.60
29321;DHT22;16323;51.130;6.612;2023-05-10T01:58:20;19.50;81.60
29321;DHT22;16323;51.130;6.612;2023-05-10T02:00:49;19.50;81.60
29321;DHT22;16323;51.130;6.612;2023-05-10T02:03:18;19.50;81.60
29321;DHT22;16323;51.130;6.612;2023-05-10T02:05:48;19.50;81.60
29321;DHT22;16323;51.130;6.612;2023-05-10T02:08:16;19.50;81.70
29321;DHT22;16323;51.130;6.612;2023-05-10T02:10:45;19.50;81.80
29321;DHT22;16323;51.130;6.612;2023-05-10T02:13:13;19.50;81.80
29321;DHT22;16323;51.130;6.612;2023-05-10T02:15:41;19.50;81.80
29321;DHT22;16323;51.130;6.612;2023-05-10T02:18:11;19.50;81.90
29321;DHT22;16323;51.130;6.612;2023-05-10T02:20:39;19.50;81.90
29321;DHT22;16323;51.130;6.612;2023-05-10T02:23:07;19.50;81.90
29321;DHT22;16323;51.130;6.612;2023-05-10T02:25:35;19.50;81.90
29321;DHT22;16323;51.130;6.612;2023-05-10T02:28:05;19.50;81.90
29321;DHT22;16323;51.130;6.612;2023-05-10T02:30:33;19.50;81.90
29321;DHT22;16323;51.130;6.612;2023-05-10T02:33:01;19.50;81.80
29321;DHT22;16323;51.130;6.612;2023-05-10T02:35:31;19.50;81.70
29321;DHT22;16323;51.130;6.612;2023-05-10T02:38:00;19.50;81.60
29321;DHT22;16323;51.130;6.612;2023-05-10T02:40:28;19.50;81.70
29321;DHT22;16323;51.130;6.612;2023-05-10T02:42:57;19.50;81.70
29321;DHT22;16323;51.130;6.612;2023-05-10T02:45:28;19.50;81.70
29321;DHT22;16323;51.130;6.612;2023-05-10T02:47:56;19.50;81.70
29321;DHT22;16323;51.130;6.612;2023-05-10T02:50:26;19.50;81.70
29321;DHT22;16323;51.130;6.612;2023-05-10T02:53:00;19.50;81.70
29321;DHT22;16323;51.130;6.612;2023-05-10T02:55:33;19.50;81.70
29321;DHT22;16323;51.130;6.612;2023-05-10T02:58:02;19.50;81.70
29321;DHT22;16323;51.130;6.612;2023-05-10T03:00:29;19.50;81.90
29321;DHT22;16323;51.130;6.612;2023-05-10T03:02:56;19.50;81.80
29321;DHT22;16323;51.130;6.612;2023-05-10T03:05:23;19.50;81.70
29321;DHT22;16323;51.130;6.612;2023-05-10T03:07:50;19.50;82.80
29321;DHT22;16323;51.130;6.612;2023-05-10T03:10:17;19.40;81.70
29321;DHT22;16323;51.130;6.612;2023-05-10T03:12:56;19.40;81.70
29321;DHT22;16323;51.130;6.612;2023-05-10T03:15:33;19.50;81.80
29321;DHT22;16323;51.130;6.612;2023-05-10T03:18:07;19.50;81.70
29321;DHT22;16323;51.130;6.612;2023-05-10T03:20:38;19.50;81.70
29321;DHT22;16323;51.130;6.612;2023-05-10T03:23:12;19.50;81.70
29321;DHT22;16323;51.130;6.612;2023-05-10T03:25:41;19.50;81.70
29321;DHT22;16323;51.130;6.612;2023-05-10T03:28:11;19.50;81.70
29321;DHT22;16323;51.130;6.612;2023-05-10T03:30:39;19.50;81.60
29321;DHT22;16323;51.130;6.612;2023-05-10T03:33:07;19.50;81.60
29321;DHT22;16323;51.130;6.612;2023-05-10T03:35:34;19.50;81.70
29321;DHT22;16323;51.130;6.612;2023-05-10T03:38:00;19.50;81.70
29321;DHT22;16323;51.130;6.612;2023-05-10T03:40:28;19.50;81.70
29321;DHT22;16323;51.130;6.612;2023-05-10T03:42:57;19.50;81.80
29321;DHT22;16323;51.130;6.612;2023-05-10T03:45:25;19.50;81.80
29321;DHT22;16323;51.130;6.612;2023-05-10T03:47:52;19.50;81.90
29321;DHT22;16323;51.130;6.612;2023-05-10T03:50:19;19.50;81.90
29321;DHT22;16323;51.130;6.612;2023-05-10T03:52:46;19.40;81.90
29321;DHT22;16323;51.130;6.612;2023-05-10T03:55:13;19.50;82.00
29321;DHT22;16323;51.130;6.612;2023-05-10T03:57:40;19.50;81.90
29321;DHT22;16323;51.130;6.612;2023-05-10T04:00:07;19.50;81.90
29321;DHT22;16323;51.130;6.612;2023-05-10T04:02:36;19.50;81.90
29321;DHT22;16323;51.130;6.612;2023-05-10T04:05:03;19.50;81.80
29321;DHT22;16323;51.130;6.612;2023-05-10T04:07:30;19.50;81.70
29321;DHT22;16323;51.130;6.612;2023-05-10T04:09:56;19.50;81.60
29321;DHT22;16323;51.130;6.612;2023-05-10T04:12:24;19.50;81.60
29321;DHT22;16323;51.130;6.612;2023-05-10T04:14:50;19.50;81.60
29321;DHT22;16323;51.130;6.612;2023-05-10T04:17:17;19.50;81.60
29321;DHT22;16323;51.130;6.612;2023-05-10T04:19:45;19.50;81.60
29321;DHT22;16323;51.130;6.612;2023-05-10T04:22:12;19.50;81.80
29321;DHT22;16323;51.130;6.612;2023-05-10T04:24:39;19.50;81.70
29321;DHT22;16323;51.130;6.612;2023-05-10T04:27:05;19.50;81.80
29321;DHT22;16323;51.130;6.612;2023-05-10T04:29:32;19.50;81.80
29321;DHT22;16323;51.130;6.612;2023-05-10T04:31:59;19.50;81.90
29321;DHT22;16323;51.130;6.612;2023-05-10T04:34:26;19.50;81.80
29321;DHT22;16323;51.130;6.612;2023-05-10T04:36:54;19.50;81.90
29321;DHT22;16323;51.130;6.612;2023-05-10T04:39:20;19.50;81.90
29321;DHT22;16323;51.130;6.612;2023-05-10T04:41:47;19.50;81.80
29321;DHT22;16323;51.130;6.612;2023-05-10T04:44:14;19.50;81.80
29321;DHT22;16323;51.130;6.612;2023-05-10T04:46:41;19.50;81.70
29321;DHT22;16323;51.130;6.612;2023-05-10T04:49:07;19.50;81.50
29321;DHT22;16323;51.130;6.612;2023-05-10T04:51:34;19.50;81.40
29321;DHT22;16323;51.130;6.612;2023-05-10T04:54:02;19.50;81.40
29321;DHT22;16323;51.130;6.612;2023-05-10T04:56:29;19.50;81.40
29321;DHT22;16323;51.130;6.612;2023-05-10T04:58:56;19.50;81.40
29321;DHT22;16323;51.130;6.612;2023-05-10T05:01:23;19.50;81.30
29321;DHT22;16323;51.130;6.612;2023-05-10T05:03:49;19.50;81.40
29321;DHT22;16323;51.130;6.612;2023-05-10T05:06:18;19.50;81.30
29321;DHT22;16323;51.130;6.612;2023-05-10T05:08:46;19.50;81.30
29321;DHT22;16323;51.130;6.612;2023-05-10T05:11:16;19.50;81.20
29321;DHT22;16323;51.130;6.612;2023-05-10T05:13:43;19.50;81.30
29321;DHT22;16323;51.130;6.612;2023-05-10T05:16:09;19.50;81.30
29321;DHT22;16323;51.130;6.612;2023-05-10T05:18:36;19.50;81.20
29321;DHT22;16323;51.130;6.612;2023-05-10T05:21:03;19.50;81.20
29321;DHT22;16323;51.130;6.612;2023-05-10T05:23:30;19.50;81.10
29321;DHT22;16323;51.130;6.612;2023-05-10T05:25:56;19.50;81.20
29321;DHT22;16323;51.130;6.612;2023-05-10T05:28:24;19.50;81.10
29321;DHT22;16323;51.130;6.612;2023-05-10T05:30:51;19.50;81.10
29321;DHT22;16323;51.130;6.612;2023-05-10T05:33:18;19.50;81.00
29321;DHT22;16323;51.130;6.612;2023-05-10T05:35:45;19.50;81.00
29321;DHT22;16323;51.130;6.612;2023-05-10T05:38:16;19.50;81.00
29321;DHT22;16323;51.130;6.612;2023-05-10T05:40:42;19.50;81.00
29321;DHT22;16323;51.130;6.612;2023-05-10T05:43:09;19.50;81.10
29321;DHT22;16323;51.130;6.612;2023-05-10T05:45:38;19.60;81.10
29321;DHT22;16323;51.130;6.612;2023-05-10T05:48:04;19.50;81.00
29321;DHT22;16323;51.130;6.612;2023-05-10T05:50:31;19.50;81.00
29321;DHT22;16323;51.130;6.612;2023-05-10T05:52:58;19.50;81.00
29321;DHT22;16323;51.130;6.612;2023-05-10T05:55:25;19.50;81.00
29321;DHT22;16323;51.130;6.612;2023-05-10T05:57:52;19.50;81.00
29321;DHT22;16323;51.130;6.612;2023-05-10T06:00:19;19.50;81.00
29321;DHT22;16323;51.130;6.612;2023-05-10T06:02:48;19.50;81.00
29321;DHT22;16323;51.130;6.612;2023-05-10T06:05:14;19.50;81.00
29321;DHT22;16323;51.130;6.612;2023-05-10T06:07:41;19.50;80.90
29321;DHT22;16323;51.130;6.612;2023-05-10T06:10:08;19.50;80.90
29321;DHT22;16323;51.130;6.612;2023-05-10T06:12:35;19.50;80.90
29321;DHT22;16323;51.130;6.612;2023-05-10T06:15:02;19.50;80.80
29321;DHT22;16323;51.130;6.612;2023-05-10T06:17:29;19.50;80.70
29321;DHT22;16323;51.130;6.612;2023-05-10T06:19:57;19.50;80.80
29321;DHT22;16323;51.130;6.612;2023-05-10T06:22:24;19.50;80.80
29321;DHT22;16323;51.130;6.612;2023-05-10T06:24:51;19.50;80.70
29321;DHT22;16323;51.130;6.612;2023-05-10T06:27:17;19.50;80.80
29321;DHT22;16323;51.130;6.612;2023-05-10T06:29:44;19.50;80.80
29321;DHT22;16323;51.130;6.612;2023-05-10T06:32:11;19.50;80.80
29321;DHT22;16323;51.130;6.612;2023-05-10T06:34:38;19.50;80.80
29321;DHT22;16323;51.130;6.612;2023-05-10T06:37:06;19.50;80.70
29321;DHT22;16323;51.130;6.612;2023-05-10T06:39:32;19.50;80.80
29321;DHT22;16323;51.130;6.612;2023-05-10T06:41:59;19.50;80.70
29321;DHT22;16323;51.130;6.612;2023-05-10T06:44:27;19.50;80.70
29321;DHT22;16323;51.130;6.612;2023-05-10T06:46:54;19.50;80.70
29321;DHT22;16323;51.130;6.612;2023-05-10T06:49:21;19.50;80.70
29321;DHT22;16323;51.130;6.612;2023-05-10T06:51:48;19.50;80.80
29321;DHT22;16323;51.130;6.612;2023-05-10T06:54:16;19.50;80.80
29321;DHT22;16323;51.130;6.612;2023-05-10T06:56:43;19.50;80.80
29321;DHT22;16323;51.130;6.612;2023-05-10T06:59:10;19.50;80.80
29321;DHT22;16323;51.130;6.612;2023-05-10T07:01:37;19.50;80.80
29321;DHT22;16323;51.130;6.612;2023-05-10T07:04:04;19.50;81.80
29321;DHT22;16323;51.130;6.612;2023-05-10T07:06:32;19.50;80.70
29321;DHT22;16323;51.130;6.612;2023-05-10T07:09:00;19.50;80.70
29321;DHT22;16323;51.130;6.612;2023-05-10T07:11:28;19.50;80.70
29321;DHT22;16323;51.130;6.612;2023-05-10T07:13:55;19.50;80.60
29321;DHT22;16323;51.130;6.612;2023-05-10T07:16:21;19.50;80.60
29321;DHT22;16323;51.130;6.612;2023-05-10T07:18:48;19.50;80.70
29321;DHT22;16323;51.130;6.612;2023-05-10T07:21:15;19.50;80.70
29321;DHT22;16323;51.130;6.612;2023-05-10T07:23:42;19.50;80.70
29321;DHT22;16323;51.130;6.612;2023-05-10T07:26:09;19.50;80.70
29321;DHT22;16323;51.130;6.612;2023-05-10T07:28:38;19.50;80.70
29321;DHT22;16323;51.130;6.612;2023-05-10T07:31:04;19.50;80.70
29321;DHT22;16323;51.130;6.612;2023-05-10T07:33:31;19.50;80.70
29321;DHT22;16323;51.130;6.612;2023-05-10T07:35:58;19.50;80.50
29321;DHT22;16323;51.130;6.612;2023-05-10T07:38:25;19.50;80.60
29321;DHT22;16323;51.130;6.612;2023-05-10T07:40:51;19.50;80.50
29321;DHT22;16323;51.130;6.612;2023-05-10T07:43:18;19.50;80.50
29321;DHT22;16323;51.130;6.612;2023-05-10T07:45:46;19.50;80.50
29321;DHT22;16323;51.130;6.612;2023-05-10T07:48:13;19.50;80.60
29321;DHT22;16323;51.130;6.612;2023-05-10T07:50:40;19.50;80.60
29321;DHT22;16323;51.130;6.612;2023-05-10T07:53:07;19.50;80.50
29321;DHT22;16323;51.130;6.612;2023-05-10T07:55:33;19.50;80.50
29321;DHT22;16323;51.130;6.612;2023-05-10T07:58:00;19.50;80.50
29321;DHT22;16323;51.130;6.612;2023-05-10T08:00:27;19.50;81.60
29321;DHT22;16323;51.130;6.612;2023-05-10T08:02:55;19.50;80.50
29321;DHT22;16323;51.130;6.612;2023-05-10T08:05:22;19.50;80.50
29321;DHT22;16323;51.130;6.612;2023-05-10T08:07:49;19.50;80.50
29321;DHT22;16323;51.130;6.612;2023-05-10T08:10:15;19.50;80.50
29321;DHT22;16323;51.130;6.612;2023-05-10T08:12:42;19.50;80.50
29321;DHT22;16323;51.130;6.612;2023-05-10T08:15:10;19.50;80.50
29321;DHT22;16323;51.130;6.612;2023-05-10T08:17:37;19.50;80.40
29321;DHT22;16323;51.130;6.612;2023-05-10T08:20:06;19.50;80.50
29321;DHT22;16323;51.130;6.612;2023-05-10T08:22:33;19.50;80.60
29321;DHT22;16323;51.130;6.612;2023-05-10T08:25:00;19.50;81.60
29321;DHT22;16323;51.130;6.612;2023-05-10T08:27:26;19.50;80.50
29321;DHT22;16323;51.130;6.612;2023-05-10T08:29:53;19.50;80.50
29321;DHT22;16323;51.130;6.612;2023-05-10T08:32:20;19.50;80.50
29321;DHT22;16323;51.130;6.612;2023-05-10T08:34:47;19.50;80.40
29321;DHT22;16323;51.130;6.612;2023-05-10T08:37:15;19.50;80.30
29321;DHT22;16323;51.130;6.612;2023-05-10T08:39:42;19.50;80.20
29321;DHT22;16323;51.130;6.612;2023-05-10T08:42:09;19.50;80.20
29321;DHT22;16323;51.130;6.612;2023-05-10T08:44:36;19.50;80.20
29321;DHT22;16323;51.130;6.612;2023-05-10T08:47:05;19.50;80.10
29321;DHT22;16323;51.130;6.612;2023-05-10T08:49:32;19.50;80.10
29321;DHT22;16323;51.130;6.612;2023-05-10T08:52:02;19.50;81.00
29321;DHT22;16323;51.130;6.612;2023-05-10T08:54:33;19.50;80.00
29321;DHT22;16323;51.130;6.612;2023-05-10T08:57:00;19.50;80.00
29321;DHT22;16323;51.130;6.612;2023-05-10T08:59:27;19.50;80.00
29321;DHT22;16323;51.130;6.612;2023-05-10T09:01:56;19.50;79.90
29321;DHT22;16323;51.130;6.612;2023-05-10T09:04:24;19.50;79.80
29321;DHT22;16323;51.130;6.612;2023-05-10T09:06:51;19.50;79.70
29321;DHT22;16323;51.130;6.612;2023-05-10T09:09:18;19.50;79.80
29321;DHT22;16323;51.130;6.612;2023-05-10T09:11:47;19.50;79.60
29321;DHT22;16323;51.130;6.612;2023-05-10T09:14:15;19.50;79.70
29321;DHT22;16323;51.130;6.612;2023-05-10T09:16:42;19.50;79.60
29321;DHT22;16323;51.130;6.612;2023-05-10T09:19:09;19.50;79.60
29321;DHT22;16323;51.130;6.612;2023-05-10T09:21:36;19.50;79.60
29321;DHT22;16323;51.130;6.612;2023-05-10T09:24:04;19.50;79.60
29321;DHT22;16323;51.130;6.612;2023-05-10T09:26:32;19.50;79.70
29321;DHT22;16323;51.130;6.612;2023-05-10T09:29:00;19.50;79.70
29321;DHT22;16323;51.130;6.612;2023-05-10T09:31:43;19.50;79.70
29321;DHT22;16323;51.130;6.612;2023-05-10T09:34:10;19.50;79.60
29321;DHT22;16323;51.130;6.612;2023-05-10T09:36:53;19.50;79.60
29321;DHT22;16323;51.130;6.612;2023-05-10T09:39:20;19.50;79.60
29321;DHT22;16323;51.130;6.612;2023-05-10T09:41:47;19.50;79.60
29321;DHT22;16323;51.130;6.612;2023-05-10T09:44:18;19.50;79.60
29321;DHT22;16323;51.130;6.612;2023-05-10T09:46:49;19.50;79.60
29321;DHT22;16323;51.130;6.612;2023-05-10T09:49:18;19.50;79.60
29321;DHT22;16323;51.130;6.612;2023-05-10T09:51:45;19.50;79.70
29321;DHT22;16323;51.130;6.612;2023-05-10T09:54:13;19.50;79.60
29321;DHT22;16323;51.130;6.612;2023-05-10T09:56:40;19.50;79.50
29321;DHT22;16323;51.130;6.612;2023-05-10T09:59:08;19.50;79.40
29321;DHT22;16323;51.130;6.612;2023-05-10T10:01:37;19.50;79.50
29321;DHT22;16323;51.130;6.612;2023-05-10T10:04:05;19.50;79.50
29321;DHT22;16323;51.130;6.612;2023-05-10T10:06:36;19.50;79.50
29321;DHT22;16323;51.130;6.612;2023-05-10T10:09:04;19.50;79.50
29321;DHT22;16323;51.130;6.612;2023-05-10T10:11:31;19.50;79.50
29321;DHT22;16323;51.130;6.612;2023-05-10T10:13:58;19.50;79.50
29321;DHT22;16323;51.130;6.612;2023-05-10T10:16:25;19.50;79.40
29321;DHT22;16323;51.130;6.612;2023-05-10T10:18:54;19.60;79.50
29321;DHT22;16323;51.130;6.612;2023-05-10T10:21:22;19.60;79.40
29321;DHT22;16323;51.130;6.612;2023-05-10T10:23:48;19.50;79.30
29321;DHT22;16323;51.130;6.612;2023-05-10T10:26:17;19.50;79.20
29321;DHT22;16323;51.130;6.612;2023-05-10T10:28:49;19.50;79.20
29321;DHT22;16323;51.130;6.612;2023-05-10T10:31:26;19.50;79.20
29321;DHT22;16323;51.130;6.612;2023-05-10T10:34:00;19.50;79.10
29321;DHT22;16323;51.130;6.612;2023-05-10T10:36:28;19.50;79.10
29321;DHT22;16323;51.130;6.612;2023-05-10T10:38:59;19.50;79.00
29321;DHT22;16323;51.130;6.612;2023-05-10T10:41:31;19.50;78.90
29321;DHT22;16323;51.130;6.612;2023-05-10T10:44:23;19.50;79.10
29321;DHT22;16323;51.130;6.612;2023-05-10T10:47:00;19.50;79.00
29321;DHT22;16323;51.130;6.612;2023-05-10T10:49:31;19.50;78.90
29321;DHT22;16323;51.130;6.612;2023-05-10T10:52:15;19.50;79.90
29321;DHT22;16323;51.130;6.612;2023-05-10T10:54:49;19.50;78.80
29321;DHT22;16323;51.130;6.612;2023-05-10T10:57:18;19.50;78.80
29321;DHT22;16323;51.130;6.612;2023-05-10T10:59:47;19.60;78.90
29321;DHT22;16323;51.130;6.612;2023-05-10T11:02:33;19.60;78.90
29321;DHT22;16323;51.130;6.612;2023-05-10T11:05:25;19.60;78.90
29321;DHT22;16323;51.130;6.612;2023-05-10T11:08:00;19.60;78.80
29321;DHT22;16323;51.130;6.612;2023-05-10T11:10:32;19.60;78.70
29321;DHT22;16323;51.130;6.612;2023-05-10T11:13:00;19.50;78.50
29321;DHT22;16323;51.130;6.612;2023-05-10T11:15:31;19.50;78.60
29321;DHT22;16323;51.130;6.612;2023-05-10T11:17:58;19.60;78.70
29321;DHT22;16323;51.130;6.612;2023-05-10T11:20:29;19.50;78.50
29321;DHT22;16323;51.130;6.612;2023-05-10T11:23:11;19.50;78.50
29321;DHT22;16323;51.130;6.612;2023-05-10T11:25:41;19.50;78.50
29321;DHT22;16323;51.130;6.612;2023-05-10T11:28:09;19.50;79.60
29321;DHT22;16323;51.130;6.612;2023-05-10T11:30:37;19.50;78.50
29321;DHT22;16323;51.130;6.612;2023-05-10T11:33:05;19.50;78.60
29321;DHT22;16323;51.130;6.612;2023-05-10T11:35:37;19.60;78.70
29321;DHT22;16323;51.130;6.612;2023-05-10T11:38:06;19.50;78.70
29321;DHT22;16323;51.130;6.612;2023-05-10T11:40:33;19.60;78.80
29321;DHT22;16323;51.130;6.612;2023-05-10T11:42:59;19.60;78.80
29321;DHT22;16323;51.130;6.612;2023-05-10T11:45:26;19.60;78.80
29321;DHT22;16323;51.130;6.612;2023-05-10T11:47:54;19.60;78.70
29321;DHT22;16323;51.130;6.612;2023-05-10T11:50:21;19.60;78.80
29321;DHT22;16323;51.130;6.612;2023-05-10T11:52:52;19.60;78.70
29321;DHT22;16323;51.130;6.612;2023-05-10T11:55:19;19.60;78.80
29321;DHT22;16323;51.130;6.612;2023-05-10T11:57:45;19.60;78.70
29321;DHT22;16323;51.130;6.612;2023-05-10T12:00:13;19.60;78.60
29321;DHT22;16323;51.130;6.612;2023-05-10T12:02:40;19.60;78.70
29321;DHT22;16323;51.130;6.612;2023-05-10T12:05:08;19.60;78.70
29321;DHT22;16323;51.130;6.612;2023-05-10T12:07:35;19.50;78.50
29321;DHT22;16323;51.130;6.612;2023-05-10T12:10:07;19.50;78.50
29321;DHT22;16323;51.130;6.612;2023-05-10T12:12:38;19.50;79.60
29321;DHT22;16323;51.130;6.612;2023-05-10T12:15:11;19.50;78.50
29321;DHT22;16323;51.130;6.612;2023-05-10T12:17:38;19.60;78.70
29321;DHT22;16323;51.130;6.612;2023-05-10T12:20:19;19.60;78.60
29321;DHT22;16323;51.130;6.612;2023-05-10T12:22:50;19.50;78.40
29321;DHT22;16323;51.130;6.612;2023-05-10T12:25:19;19.60;78.50
29321;DHT22;16323;51.130;6.612;2023-05-10T12:27:51;19.60;78.60
29321;DHT22;16323;51.130;6.612;2023-05-10T12:30:20;19.60;78.50
29321;DHT22;16323;51.130;6.612;2023-05-10T12:32:47;19.60;78.40
29321;DHT22;16323;51.130;6.612;2023-05-10T12:35:14;19.60;78.50
29321;DHT22;16323;51.130;6.612;2023-05-10T12:37:42;19.60;78.40
29321;DHT22;16323;51.130;6.612;2023-05-10T12:40:10;19.60;78.40
29321;DHT22;16323;51.130;6.612;2023-05-10T12:42:39;19.60;78.40
29321;DHT22;16323;51.130;6.612;2023-05-10T12:45:08;19.60;78.40
29321;DHT22;16323;51.130;6.612;2023-05-10T12:47:35;19.60;78.30
29321;DHT22;16323;51.130;6.612;2023-05-10T12:50:02;19.60;78.40
29321;DHT22;16323;51.130;6.612;2023-05-10T12:52:29;19.60;78.40
29321;DHT22;16323;51.130;6.612;2023-05-10T12:54:57;19.60;78.40
29321;DHT22;16323;51.130;6.612;2023-05-10T12:57:24;19.60;79.60
29321;DHT22;16323;51.130;6.612;2023-05-10T12:59:53;19.60;78.50
29321;DHT22;16323;51.130;6.612;2023-05-10T13:02:20;19.60;78.50
29321;DHT22;16323;51.130;6.612;2023-05-10T13:04:48;19.60;78.60
29321;DHT22;16323;51.130;6.612;2023-05-10T13:07:15;19.60;78.60
29321;DHT22;16323;51.130;6.612;2023-05-10T13:09:42;19.60;78.60
29321;DHT22;16323;51.130;6.612;2023-05-10T13:12:09;19.60;78.50
29321;DHT22;16323;51.130;6.612;2023-05-10T13:14:35;19.60;78.50
29321;DHT22;16323;51.130;6.612;2023-05-10T13:17:04;19.60;78.60
29321;DHT22;16323;51.130;6.612;2023-05-10T13:19:30;19.60;78.60
29321;DHT22;16323;51.130;6.612;2023-05-10T13:21:57;19.60;78.70
29321;DHT22;16323;51.130;6.612;2023-05-10T13:24:24;19.60;78.80
29321;DHT22;16323;51.130;6.612;2023-05-10T13:26:51;19.60;78.80
29321;DHT22;16323;51.130;6.612;2023-05-10T13:29:17;19.60;78.90
29321;DHT22;16323;51.130;6.612;2023-05-10T13:31:45;19.60;78.80
29321;DHT22;16323;51.130;6.612;2023-05-10T13:34:13;19.60;78.80
29321;DHT22;16323;51.130;6.612;2023-05-10T13:36:40;19.60;78.80
29321;DHT22;16323;51.130;6.612;2023-05-10T13:39:07;19.60;78.70
29321;DHT22;16323;51.130;6.612;2023-05-10T13:41:34;19.60;78.70
29321;DHT22;16323;51.130;6.612;2023-05-10T13:44:00;19.60;78.70
29321;DHT22;16323;51.130;6.612;2023-05-10T13:46:28;19.60;78.70
29321;DHT22;16323;51.130;6.612;2023-05-10T13:48:56;19.60;79.10
29321;DHT22;16323;51.130;6.612;2023-05-10T13:51:24;19.60;78.50
29321;DHT22;16323;51.130;6.612;2023-05-10T13:53:51;19.60;78.50
29321;DHT22;16323;51.130;6.612;2023-05-10T13:56:18;19.60;78.50
29321;DHT22;16323;51.130;6.612;2023-05-10T13:58:44;19.60;78.40
29321;DHT22;16323;51.130;6.612;2023-05-10T14:01:11;19.60;78.30
29321;DHT22;16323;51.130;6.612;2023-05-10T14:03:38;19.60;78.30
29321;DHT22;16323;51.130;6.612;2023-05-10T14:06:05;19.60;78.30
29321;DHT22;16323;51.130;6.612;2023-05-10T14:08:34;19.60;78.30
29321;DHT22;16323;51.130;6.612;2023-05-10T14:11:01;19.60;78.30
29321;DHT22;16323;51.130;6.612;2023-05-10T14:13:27;19.60;78.20
29321;DHT22;16323;51.130;6.612;2023-05-10T14:15:55;19.60;78.00
29321;DHT22;16323;51.130;6.612;2023-05-10T14:18:21;19.60;77.90
29321;DHT22;16323;51.130;6.612;2023-05-10T14:20:48;19.60;77.90
29321;DHT22;16323;51.130;6.612;2023-05-10T14:23:15;19.60;77.90
29321;DHT22;16323;51.130;6.612;2023-05-10T14:25:43;19.60;77.90
29321;DHT22;16323;51.130;6.612;2023-05-10T14:28:10;19.60;78.00
29321;DHT22;16323;51.130;6.612;2023-05-10T14:30:37;19.50;78.10
29321;DHT22;16323;51.130;6.612;2023-05-10T14:33:04;19.60;78.00
29321;DHT22;16323;51.130;6.612;2023-05-10T14:35:31;19.60;78.10
29321;DHT22;16323;51.130;6.612;2023-05-10T14:37:57;19.60;78.00
29321;DHT22;16323;51.130;6.612;2023-05-10T14:40:24;19.60;77.90
29321;DHT22;16323;51.130;6.612;2023-05-10T14:42:53;19.60;77.90
29321;DHT22;16323;51.130;6.612;2023-05-10T14:45:20;19.60;77.90
29321;DHT22;16323;51.130;6.612;2023-05-10T14:47:48;19.60;77.90
29321;DHT22;16323;51.130;6.612;2023-05-10T14:50:15;19.60;77.90
29321;DHT22;16323;51.130;6.612;2023-05-10T14:52:42;19.60;77.90
29321;DHT22;16323;51.130;6.612;2023-05-10T14:55:09;19.60;77.90
29321;DHT22;16323;51.130;6.612;2023-05-10T14:57:35;19.60;77.90
29321;DHT22;16323;51.130;6.612;2023-05-10T15:00:04;19.60;77.90
29321;DHT22;16323;51.130;6.612;2023-05-10T15:02:31;19.60;77.90
29321;DHT22;16323;51.130;6.612;2023-05-10T15:04:58;19.60;77.90
29321;DHT22;16323;51.130;6.612;2023-05-10T15:07:25;19.60;77.90
29321;DHT22;16323;51.130;6.612;2023-05-10T15:09:52;19.50;77.80
29321;DHT22;16323;51.130;6.612;2023-05-10T15:12:19;19.60;77.90
29321;DHT22;16323;51.130;6.612;2023-05-10T15:14:46;19.60;77.90
29321;DHT22;16323;51.130;6.612;2023-05-10T15:17:14;19.60;77.90
29321;DHT22;16323;51.130;6.612;2023-05-10T15:19:41;19.60;77.90
29321;DHT22;16323;51.130;6.612;2023-05-10T15:22:08;19.60;77.90
29321;DHT22;16323;51.130;6.612;2023-05-10T15:24:35;19.60;77.90
29321;DHT22;16323;51.130;6.612;2023-05-10T15:27:02;19.60;78.00
29321;DHT22;16323;51.130;6.612;2023-05-10T15:29:29;19.60;77.90
29321;DHT22;16323;51.130;6.612;2023-05-10T15:31:56;19.60;77.90
29321;DHT22;16323;51.130;6.612;2023-05-10T15:34:25;19.60;77.90
29321;DHT22;16323;51.130;6.612;2023-05-10T15:36:51;19.60;77.90